New Glarus, Wisconsin
Current Conditions -  °F | °C
As of 2:15 AM on Monday 26 Jan 2015 (Local Time) from KEFT Reporting Station
Clear Clear  
Wind Chill:   Ceiling: Unl
Heat Index: 14°   Visibility: 10mi
Dew Point: 12°   Wind: 5mph
Humidity: 93%   Direction: 340°NNW
Pressure: 29.98"   Gusts: NA
Location:  42.81°N, 89.64°W
Report Text: KEFT 260815Z AUTO 34004KT 10SM CLR M10/M11 A2998 RMK AO2
Loading
Personal Weather Stations






























Interactive Weather Map New forecast layout! Learn more

10-Day Weather Forecast

Advertisements
Track Severe Weather on mobile